Home > Products > Valid Products > TAF

000
FTUS42 KJAX 010427 AAA
TAFSSI
TAF AMD
KSSI 010427Z 0104/0124 26011KT P6SM VCSH SCT050 BKN150
      TEMPO 0104/0106 30016G27KT
     FM010800 26008KT P6SM SCT010 BKN200 WS020/30035KT
     FM011300 28008KT P6SM SCT020 BKN200
     FM011900 08010KT P6SM VCSH BKN040=



000
FTUS42 KJAX 312347
TAFSSI
TAF
KSSI 312347Z 0100/0124 24007KT P6SM SCT050 BKN200
     FM010700 26006KT P6SM SCT010 BKN200 WS020/30035KT
     FM011300 28008KT P6SM SCT020 BKN200
     FM011900 08010KT P6SM VCSH BKN040=



000
FTUS42 KJAX 312347
TAFSSI
TAF
KSSI 312347Z 0100/0124 24007KT P6SM SCT050 BKN200
     FM010700 26006KT P6SM SCT010 BKN200 WS020/30035KT
     FM011300 28008KT P6SM SCT020 BKN200
     FM011900 08010KT P6SM VCSH BKN040=



000
FTUS42 KJAX 312341
TAFGNV
TAF
KGNV 312341Z 0100/0124 24010KT P6SM SCT050 BKN200
     FM010800 24006KT P6SM SCT004 BKN008
     FM011400 27010G18KT P6SM SCT020 BKN035=



000
FTUS42 KJAX 312341
TAFCRG
TAF
KCRG 312341Z 0100/0124 24007KT P6SM SCT050 BKN200
     FM010700 26006KT P6SM SCT010 BKN200 WS020/30035KT
     FM011300 27008KT P6SM SCT020 BKN200
     FM011800 33008KT P6SM VCSH BKN040=



000
FTUS42 KJAX 312341
TAFJAX
TAF
KJAX 312341Z 0100/0124 24007KT P6SM SCT050 BKN200
     FM010700 26006KT P6SM SCT010 BKN200 WS020/30035KT
     FM011300 27008KT P6SM SCT020 BKN200
     FM011800 33008KT P6SM VCSH BKN040=



000
FTUS42 KJAX 312341
TAFCRG
TAF
KCRG 312341Z 0100/0124 24007KT P6SM SCT050 BKN200
     FM010700 26006KT P6SM SCT010 BKN200 WS020/30035KT
     FM011300 27008KT P6SM SCT020 BKN200
     FM011800 33008KT P6SM VCSH BKN040=



000
FTUS42 KJAX 312341
TAFGNV
TAF
KGNV 312341Z 0100/0124 24010KT P6SM SCT050 BKN200
     FM010800 24006KT P6SM SCT004 BKN008
     FM011400 27010G18KT P6SM SCT020 BKN035=



000
FTUS42 KJAX 312341
TAFJAX
TAF
KJAX 312341Z 0100/0124 24007KT P6SM SCT050 BKN200
     FM010700 26006KT P6SM SCT010 BKN200 WS020/30035KT
     FM011300 27008KT P6SM SCT020 BKN200
     FM011800 33008KT P6SM VCSH BKN040=



000
FTUS42 KJAX 312109 AAA
TAFCRG
TAF AMD
KCRG 312109Z 3121/0118 25010KT P6SM SCT050 BKN250
     FM312300 24008KT P6SM VCSH BKN050 BKN250
     FM010500 25006KT P6SM SCT050 BKN250=



000
FTUS42 KJAX 312107 AAA
TAFJAX
TAF AMD
KJAX 312107Z 3121/0118 25010KT P6SM SCT040 BKN250
     FM312300 24008KT P6SM VCSH BKN050 BKN250
     FM010500 24005KT P6SM SCT050 BKN250=



000
FTUS42 KJAX 311720
TAFGNV
TAF
KGNV 311720Z 3118/0118 27008KT P6SM BKN020 BKN030
     FM311900 25010KT P6SM VCTS SCT040CB BKN250
     FM312200 24010KT P6SM BKN050 BKN250
     FM010500 24005KT P6SM SCT050 BKN250=



000
FTUS42 KJAX 311720
TAFJAX
TAF
KJAX 311720Z 3118/0118 21008KT P6SM FEW020 SCT050
     FM311900 24010KT P6SM VCTS SCT040CB BKN250
     FM312200 21008KT P6SM VCTS BKN050CB BKN250
     FM010500 24005KT P6SM SCT050 BKN250=



000
FTUS42 KJAX 311720
TAFCRG
TAF
KCRG 311720Z 3118/0118 24010KT P6SM FEW025 SCT050
     FM312200 21008KT P6SM VCTS BKN050CB BKN250
     FM010500 25005KT P6SM SCT050 BKN250=



000
FTUS42 KJAX 311720
TAFCRG
TAF
KCRG 311720Z 3118/0118 24010KT P6SM FEW025 SCT050
     FM312200 21008KT P6SM VCTS BKN050CB BKN250
     FM010500 25005KT P6SM SCT050 BKN250=



000
FTUS42 KJAX 311720
TAFGNV
TAF
KGNV 311720Z 3118/0118 27008KT P6SM BKN020 BKN030
     FM311900 25010KT P6SM VCTS SCT040CB BKN250
     FM312200 24010KT P6SM BKN050 BKN250
     FM010500 24005KT P6SM SCT050 BKN250=



000
FTUS42 KJAX 311720
TAFSSI
TAF
KSSI 311720Z 3118/0118 24008KT P6SM FEW025 SCT050
     FM312000 18008KT P6SM VCTS BKN050CB BKN250
     FM010500 24005KT P6SM SCT050 BKN250=



000
FTUS42 KJAX 311720
TAFSSI
TAF
KSSI 311720Z 3118/0118 24008KT P6SM FEW025 SCT050
     FM312000 18008KT P6SM VCTS BKN050CB BKN250
     FM010500 24005KT P6SM SCT050 BKN250=



000
FTUS42 KJAX 311720
TAFJAX
TAF
KJAX 311720Z 3118/0118 21008KT P6SM FEW020 SCT050
     FM311900 24010KT P6SM VCTS SCT040CB BKN250
     FM312200 21008KT P6SM VCTS BKN050CB BKN250
     FM010500 24005KT P6SM SCT050 BKN250=



000
FTUS42 KJAX 311553 AAA
TAFGNV
TAF AMD
KGNV 311553Z 3116/0112 25006G12KT P6SM OVC014
     FM311730 27006KT P6SM FEW030 SCT250
     FM311900 25010KT P6SM SCT040 BKN250
     FM312200 24010KT P6SM BKN050 BKN250
     FM010500 24005KT P6SM SCT050 BKN250=



000
FTUS42 KJAX 311527 AAA
TAFJAX
TAF AMD
KJAX 311527Z 3115/0112 20003KT P6SM SCT010
     FM311700 27006KT P6SM FEW030 SCT250
     FM311900 25009KT P6SM SCT040 BKN250
     FM312200 22007KT P6SM VCTS BKN050CB BKN250
     FM010500 24005KT P6SM SCT050 BKN250=



000
FTUS42 KJAX 311527 AAA
TAFJAX
TAF AMD
KJAX 311527Z 3115/0112 20003KT P6SM SCT010
     FM311700 27006KT P6SM FEW030 SCT250
     FM311900 25009KT P6SM SCT040 BKN250
     FM312200 22007KT P6SM VCTS BKN050CB BKN250
     FM010500 24005KT P6SM SCT050 BKN250=



000
FTUS42 KJAX 311139
TAFSSI
TAF
KSSI 311139Z 3112/0112 26003KT 3/4SM BR VV004
     FM311430 28005KT P6SM FEW030 SCT250
     FM312000 19008KT P6SM VCTS BKN050CB BKN250
     FM010500 24005KT P6SM SCT050 BKN250=



000
FTUS42 KJAX 311139
TAFJAX
TAF
KJAX 311139Z 3112/0112 20003KT 6SM BR FEW060
     FM311400 27006KT P6SM FEW030 SCT250
     FM311800 25009KT P6SM SCT040 BKN250
     FM312200 22007KT P6SM VCTS BKN050CB BKN250
     FM010500 24005KT P6SM SCT050 BKN250=



000
FTUS42 KJAX 311139
TAFCRG
TAF
KCRG 311139Z 3112/0112 00000KT P6SM SKC
     FM311400 27006KT P6SM FEW030 SCT250
     FM311800 25009KT P6SM SCT040 BKN250
     FM312200 21007KT P6SM VCTS BKN050CB BKN250
     FM010500 25005KT P6SM SCT050 BKN250=



000
FTUS42 KJAX 311139
TAFGNV
TAF
KGNV 311139Z 3112/0112 26006KT P6SM OVC016
     FM311430 27006KT P6SM FEW030 SCT250
     FM311800 25010KT P6SM SCT040 BKN250
     FM312200 24010KT P6SM BKN050 BKN250
     FM010500 24005KT P6SM SCT050 BKN250=



000
FTUS42 KJAX 311139
TAFGNV
TAF
KGNV 311139Z 3112/0112 26006KT P6SM OVC016
     FM311430 27006KT P6SM FEW030 SCT250
     FM311800 25010KT P6SM SCT040 BKN250
     FM312200 24010KT P6SM BKN050 BKN250
     FM010500 24005KT P6SM SCT050 BKN250=



000
FTUS42 KJAX 311139
TAFSSI
TAF
KSSI 311139Z 3112/0112 26003KT 3/4SM BR VV004
     FM311430 28005KT P6SM FEW030 SCT250
     FM312000 19008KT P6SM VCTS BKN050CB BKN250
     FM010500 24005KT P6SM SCT050 BKN250=



000
FTUS42 KJAX 311139
TAFCRG
TAF
KCRG 311139Z 3112/0112 00000KT P6SM SKC
     FM311400 27006KT P6SM FEW030 SCT250
     FM311800 25009KT P6SM SCT040 BKN250
     FM312200 21007KT P6SM VCTS BKN050CB BKN250
     FM010500 25005KT P6SM SCT050 BKN250=



000
FTUS42 KJAX 311139
TAFJAX
TAF
KJAX 311139Z 3112/0112 20003KT 6SM BR FEW060
     FM311400 27006KT P6SM FEW030 SCT250
     FM311800 25009KT P6SM SCT040 BKN250
     FM312200 22007KT P6SM VCTS BKN050CB BKN250
     FM010500 24005KT P6SM SCT050 BKN250=



000
FTUS42 KJAX 310524
TAFCRG
TAF
KCRG 310524Z 3106/0106 25007KT P6SM FEW050
     FM311000 28004KT 3SM BR SCT005
     FM311400 27006KT P6SM FEW030 SCT250
     FM311800 25009KT P6SM SCT040 BKN250
     FM312200 21007KT P6SM VCTS BKN050CB BKN250
     FM010500 25005KT P6SM SCT050 BKN250=



000
FTUS42 KJAX 310524
TAFJAX
TAF
KJAX 310524Z 3106/0106 25007KT P6SM FEW050
     FM311000 26003KT 3SM BR SCT005
     FM311400 27006KT P6SM FEW030 SCT250
     FM311800 25009KT P6SM SCT040 BKN250
     FM312200 22007KT P6SM VCTS BKN050CB BKN250
     FM010500 24005KT P6SM SCT050 BKN250=



000
FTUS42 KJAX 310524
TAFSSI
TAF
KSSI 310524Z 3106/0106 25005KT P6SM FEW050
     FM310900 26004KT 3SM BR SCT005
     FM311100 27003KT 1SM BR BKN003
     FM311430 28005KT P6SM FEW030 SCT250
     FM312000 19008KT P6SM VCTS BKN050CB BKN250
     FM010500 24005KT P6SM SCT050 BKN250=



000
FTUS42 KJAX 310524
TAFCRG
TAF
KCRG 310524Z 3106/0106 25007KT P6SM FEW050
     FM311000 28004KT 3SM BR SCT005
     FM311400 27006KT P6SM FEW030 SCT250
     FM311800 25009KT P6SM SCT040 BKN250
     FM312200 21007KT P6SM VCTS BKN050CB BKN250
     FM010500 25005KT P6SM SCT050 BKN250=



000
FTUS42 KJAX 310524
TAFGNV
TAF
KGNV 310524Z 3106/0106 25006KT P6SM SKC
     FM310800 26003KT 3SM BR SCT005
     FM311000 26002KT 1SM BR BKN003
     FM311430 27006KT P6SM FEW030 SCT250
     FM311800 25010KT P6SM SCT040 BKN250
     FM312200 24010KT P6SM BKN050 BKN250
     FM010500 24005KT P6SM SCT050 BKN250=



000
FTUS42 KJAX 310524
TAFGNV
TAF
KGNV 310524Z 3106/0106 25006KT P6SM SKC
     FM310800 26003KT 3SM BR SCT005
     FM311000 26002KT 1SM BR BKN003
     FM311430 27006KT P6SM FEW030 SCT250
     FM311800 25010KT P6SM SCT040 BKN250
     FM312200 24010KT P6SM BKN050 BKN250
     FM010500 24005KT P6SM SCT050 BKN250=



000
FTUS42 KJAX 310524
TAFJAX
TAF
KJAX 310524Z 3106/0106 25007KT P6SM FEW050
     FM311000 26003KT 3SM BR SCT005
     FM311400 27006KT P6SM FEW030 SCT250
     FM311800 25009KT P6SM SCT040 BKN250
     FM312200 22007KT P6SM VCTS BKN050CB BKN250
     FM010500 24005KT P6SM SCT050 BKN250=



000
FTUS42 KJAX 310524
TAFSSI
TAF
KSSI 310524Z 3106/0106 25005KT P6SM FEW050
     FM310900 26004KT 3SM BR SCT005
     FM311100 27003KT 1SM BR BKN003
     FM311430 28005KT P6SM FEW030 SCT250
     FM312000 19008KT P6SM VCTS BKN050CB BKN250
     FM010500 24005KT P6SM SCT050 BKN250=



000
FTUS42 KJAX 310211 AAA
TAFSSI
TAF AMD
KSSI 310211Z 3102/3124 21007KT P6SM SCT040
     FM310600 27004KT P6SM SCT060
     FM311300 23008KT P6SM SCT050 BKN250=



000
FTUS42 KJAX 302320
TAFGNV
TAF
KGNV 302320Z 3100/3124 26005KT P6SM SCT050
      TEMPO 3109/3112 5SM BR BKN008
     FM311400 26009KT P6SM SCT040 BKN250=



000
FTUS42 KJAX 302320
TAFCRG
TAF
KCRG 302320Z 3100/3124 26006KT P6SM SCT050
     FM310800 24003KT P6SM SCT008
      TEMPO 3109/3112 5SM BR BKN008
     FM311400 26009KT P6SM SCT040 BKN250=



000
FTUS42 KJAX 302320
TAFJAX
TAF
KJAX 302320Z 3100/3124 26006KT P6SM SCT050
     FM310800 24003KT P6SM SCT008
      TEMPO 3109/3112 5SM BR BKN008
     FM311400 26009KT P6SM SCT040 BKN250=



000
FTUS42 KJAX 302320
TAFJAX
TAF
KJAX 302320Z 3100/3124 26006KT P6SM SCT050
     FM310800 24003KT P6SM SCT008
      TEMPO 3109/3112 5SM BR BKN008
     FM311400 26009KT P6SM SCT040 BKN250=



000
FTUS42 KJAX 302320
TAFSSI
TAF
KSSI 302320Z 3100/3124 26007KT P6SM SCT040
     FM310600 27004KT P6SM SCT060
     FM311300 23008KT P6SM SCT050 BKN250=



000
FTUS42 KJAX 302320
TAFGNV
TAF
KGNV 302320Z 3100/3124 26005KT P6SM SCT050
      TEMPO 3109/3112 5SM BR BKN008
     FM311400 26009KT P6SM SCT040 BKN250=



000
FTUS42 KJAX 302320
TAFCRG
TAF
KCRG 302320Z 3100/3124 26006KT P6SM SCT050
     FM310800 24003KT P6SM SCT008
      TEMPO 3109/3112 5SM BR BKN008
     FM311400 26009KT P6SM SCT040 BKN250=



000
FTUS42 KJAX 302320
TAFSSI
TAF
KSSI 302320Z 3100/3124 26007KT P6SM SCT040
     FM310600 27004KT P6SM SCT060
     FM311300 23008KT P6SM SCT050 BKN250=



000
FTUS42 KJAX 301937 AAA
TAFSSI
TAF AMD
KSSI 301937Z 3020/3118 21010KT P6SM SCT040 BKN060 OVC090
     FM302200 24008KT P6SM SCT040 SCT080 BKN250
     FM310600 VRB03KT P6SM SCT060 SCT250
     FM311200 30005KT P6SM FEW060 SCT250=



000
FTUS42 KJAX 301937 AAA
TAFSSI
TAF AMD
KSSI 301937Z 3020/3118 21010KT P6SM SCT040 BKN060 OVC090
     FM302200 24008KT P6SM SCT040 SCT080 BKN250
     FM310600 VRB03KT P6SM SCT060 SCT250
     FM311200 30005KT P6SM FEW060 SCT250=



000
FTUS42 KJAX 301934 AAA
TAFGNV
TAF AMD
KGNV 301934Z 3020/3118 28010G16KT P6SM SCT050 SCT090
     FM310300 28005KT P6SM FEW050 BKN250
     FM310700 VRB03KT 4SM BR SCT008
     FM311000 00000KT 2SM BR SCT005
     FM311300 27005KT P6SM FEW010 BKN250=



000
FTUS42 KJAX 301934 AAA
TAFGNV
TAF AMD
KGNV 301934Z 3020/3118 28010G16KT P6SM SCT050 SCT090
     FM310300 28005KT P6SM FEW050 BKN250
     FM310700 VRB03KT 4SM BR SCT008
     FM311000 00000KT 2SM BR SCT005
     FM311300 27005KT P6SM FEW010 BKN250=



000
FTUS42 KJAX 301930 AAA
TAFCRG
TAF AMD
KCRG 301930Z 3020/3118 29012G18KT P6SM BKN060 BKN200
     FM310300 24005KT P6SM FEW050 BKN250
     FM310800 VRB03KT 5SM BR SCT008
     FM311100 00000KT 3SM BR SCT005
     FM311300 27005KT P6SM FEW010 BKN250=



000
FTUS42 KJAX 301930 AAA
TAFCRG
TAF AMD
KCRG 301930Z 3020/3118 29012G18KT P6SM BKN060 BKN200
     FM310300 24005KT P6SM FEW050 BKN250
     FM310800 VRB03KT 5SM BR SCT008
     FM311100 00000KT 3SM BR SCT005
     FM311300 27005KT P6SM FEW010 BKN250=



000
FTUS42 KJAX 301929 AAA
TAFJAX
TAF AMD
KJAX 301929Z 3019/3118 29012G18KT P6SM BKN060 BKN200
     FM310300 24005KT P6SM FEW050 BKN250
     FM310800 VRB03KT 5SM BR SCT008
     FM311100 00000KT 3SM BR SCT005
     FM311300 27005KT P6SM FEW010 BKN250=



000
FTUS42 KJAX 301929 AAA
TAFJAX
TAF AMD
KJAX 301929Z 3019/3118 29012G18KT P6SM BKN060 BKN200
     FM310300 24005KT P6SM FEW050 BKN250
     FM310800 VRB03KT 5SM BR SCT008
     FM311100 00000KT 3SM BR SCT005
     FM311300 27005KT P6SM FEW010 BKN250=



000
FTUS42 KJAX 301720
TAFJAX
TAF
KJAX 301720Z 3018/3118 24012G16KT P6SM FEW060 SCT100
     FM302000 24006G12KT P6SM VCSH SCT050 BKN100
      TEMPO 3020/3024 5SM SHRA BKN050
     FM310300 24005KT P6SM FEW050 BKN250
     FM310800 VRB03KT P6SM FEW250
      TEMPO 3108/3111 4SM BR
     FM311100 00000KT 3SM BR FEW250
     FM311300 27005KT P6SM BKN250=



000
FTUS42 KJAX 301720
TAFGNV
TAF
KGNV 301720Z 3018/3118 27008KT P6SM SCT050 BKN100
     FM302000 24006G12KT P6SM VCSH SCT050 BKN100
      TEMPO 3020/3024 5SM SHRA BKN050
     FM310300 24005KT P6SM FEW050 BKN250
     FM310800 VRB03KT 5SM HZ FEW250
      TEMPO 3108/3111 3SM BR
     FM311100 00000KT 2SM BR BKN004
     FM311300 27005KT P6SM BKN250=



000
FTUS42 KJAX 301720
TAFSSI
TAF
KSSI 301720Z 3018/3118 21010G15KT P6SM VCSH FEW060 SCT090
      TEMPO 3018/3022 3SM SHRA SCT040 BKN080
     FM302200 21008KT P6SM VCSH BKN040 BKN250
     FM310600 VRB03KT P6SM SCT250
     FM310900 30005KT P6SM SCT250=



000
FTUS42 KJAX 301720
TAFCRG
TAF
KCRG 301720Z 3018/3118 24012G16KT P6SM SCT050 BKN100
     FM302000 24006G12KT P6SM VCSH SCT050 BKN100
      TEMPO 3020/3024 5SM SHRA BKN050
     FM310300 24005KT P6SM FEW050 BKN250
     FM310800 VRB03KT P6SM FEW250
      TEMPO 3108/3111 4SM BR
     FM311100 00000KT 3SM BR FEW250
     FM311300 27005KT P6SM BKN250=



000
FTUS42 KJAX 301720
TAFSSI
TAF
KSSI 301720Z 3018/3118 21010G15KT P6SM VCSH FEW060 SCT090
      TEMPO 3018/3022 3SM SHRA SCT040 BKN080
     FM302200 21008KT P6SM VCSH BKN040 BKN250
     FM310600 VRB03KT P6SM SCT250
     FM310900 30005KT P6SM SCT250=



000
FTUS42 KJAX 301720
TAFGNV
TAF
KGNV 301720Z 3018/3118 27008KT P6SM SCT050 BKN100
     FM302000 24006G12KT P6SM VCSH SCT050 BKN100
      TEMPO 3020/3024 5SM SHRA BKN050
     FM310300 24005KT P6SM FEW050 BKN250
     FM310800 VRB03KT 5SM HZ FEW250
      TEMPO 3108/3111 3SM BR
     FM311100 00000KT 2SM BR BKN004
     FM311300 27005KT P6SM BKN250=



000
FTUS42 KJAX 301720
TAFCRG
TAF
KCRG 301720Z 3018/3118 24012G16KT P6SM SCT050 BKN100
     FM302000 24006G12KT P6SM VCSH SCT050 BKN100
      TEMPO 3020/3024 5SM SHRA BKN050
     FM310300 24005KT P6SM FEW050 BKN250
     FM310800 VRB03KT P6SM FEW250
      TEMPO 3108/3111 4SM BR
     FM311100 00000KT 3SM BR FEW250
     FM311300 27005KT P6SM BKN250=



000
FTUS42 KJAX 301720
TAFJAX
TAF
KJAX 301720Z 3018/3118 24012G16KT P6SM FEW060 SCT100
     FM302000 24006G12KT P6SM VCSH SCT050 BKN100
      TEMPO 3020/3024 5SM SHRA BKN050
     FM310300 24005KT P6SM FEW050 BKN250
     FM310800 VRB03KT P6SM FEW250
      TEMPO 3108/3111 4SM BR
     FM311100 00000KT 3SM BR FEW250
     FM311300 27005KT P6SM BKN250=



000
FTUS42 KJAX 301120
TAFCRG
TAF
KCRG 301120Z 3012/3112 VRB02KT P6SM SKC
     FM301400 22008KT P6SM FEW050
     FM301700 24010G17KT P6SM SCT050 SCT250
     FM310100 24004KT P6SM VCSH BKN050 BKN250
     FM310600 25003KT P6SM SCT250
     FM310900 27002KT 3SM BR SCT003 SCT250=



000
FTUS42 KJAX 301120
TAFJAX
TAF
KJAX 301120Z 3012/3112 VRB02KT P6SM SKC
     FM301400 21008KT P6SM FEW050
     FM301700 24010G17KT P6SM SCT050 SCT250
     FM310100 24004KT P6SM VCSH BKN050 BKN250
     FM310600 25003KT P6SM SCT250
     FM310900 27002KT 3SM BR SCT003 SCT250=



000
FTUS42 KJAX 301120
TAFSSI
TAF
KSSI 301120Z 3012/3112 VRB04KT P6SM SKC
     FM301400 22010KT P6SM FEW050
     FM301900 24010G20KT P6SM VCSH BKN050
     FM302200 21008KT P6SM VCTS BKN040CB BKN250
     FM310600 26003KT P6SM SCT250
     FM310900 29002KT 4SM BR SCT250=



000
FTUS42 KJAX 301120
TAFGNV
TAF
KGNV 301120Z 3012/3112 VRB02KT P6SM SKC
     FM301500 21009KT P6SM SKC
     FM301800 25011G18KT P6SM FEW050 SCT250
     FM310100 24006KT P6SM SCT050 BKN250
     FM310600 25003KT 6SM BR SCT250
     FM310900 28003KT 2SM BR SCT002 SCT250=



000
FTUS42 KJAX 301120
TAFSSI
TAF
KSSI 301120Z 3012/3112 VRB04KT P6SM SKC
     FM301400 22010KT P6SM FEW050
     FM301900 24010G20KT P6SM VCSH BKN050
     FM302200 21008KT P6SM VCTS BKN040CB BKN250
     FM310600 26003KT P6SM SCT250
     FM310900 29002KT 4SM BR SCT250=



000
FTUS42 KJAX 301120
TAFCRG
TAF
KCRG 301120Z 3012/3112 VRB02KT P6SM SKC
     FM301400 22008KT P6SM FEW050
     FM301700 24010G17KT P6SM SCT050 SCT250
     FM310100 24004KT P6SM VCSH BKN050 BKN250
     FM310600 25003KT P6SM SCT250
     FM310900 27002KT 3SM BR SCT003 SCT250=



000
FTUS42 KJAX 301120
TAFGNV
TAF
KGNV 301120Z 3012/3112 VRB02KT P6SM SKC
     FM301500 21009KT P6SM SKC
     FM301800 25011G18KT P6SM FEW050 SCT250
     FM310100 24006KT P6SM SCT050 BKN250
     FM310600 25003KT 6SM BR SCT250
     FM310900 28003KT 2SM BR SCT002 SCT250=



000
FTUS42 KJAX 301120
TAFJAX
TAF
KJAX 301120Z 3012/3112 VRB02KT P6SM SKC
     FM301400 21008KT P6SM FEW050
     FM301700 24010G17KT P6SM SCT050 SCT250
     FM310100 24004KT P6SM VCSH BKN050 BKN250
     FM310600 25003KT P6SM SCT250
     FM310900 27002KT 3SM BR SCT003 SCT250=



000
FTUS42 KJAX 300542 AAA
TAFSSI
TAF AMD
KSSI 300542Z 3006/3106 VRB04KT P6SM SKC
     FM301400 22010KT P6SM FEW050
     FM301900 24010G20KT P6SM VCSH BKN050
     FM302200 21008KT P6SM VCTS BKN040CB BKN250=



000
FTUS42 KJAX 300542 AAA
TAFSSI
TAF AMD
KSSI 300542Z 3006/3106 VRB04KT P6SM SKC
     FM301400 22010KT P6SM FEW050
     FM301900 24010G20KT P6SM VCSH BKN050
     FM302200 21008KT P6SM VCTS BKN040CB BKN250=



000
FTUS42 KJAX 300539
TAFJAX
TAF
KJAX 300539Z 3006/3106 VRB02KT P6SM SKC
     FM301400 21008KT P6SM FEW050
     FM301700 24010G17KT P6SM SCT050 SCT250
     FM310100 24004KT P6SM VCSH BKN050 BKN250=



000
FTUS42 KJAX 300539
TAFCRG
TAF
KCRG 300539Z 3006/3106 VRB02KT P6SM SKC
     FM301400 22008KT P6SM FEW050
     FM301700 24010G17KT P6SM SCT050 SCT250
     FM310100 24004KT P6SM VCSH BKN050 BKN250=



000
FTUS42 KJAX 300539
TAFSSI
TAF
KSSI 300539Z 3006/3106 VRB04KT P6SM SKC
     FM301400 22010KT P6SM FEW050
     FM301900 25010G20KT P6SM VCSH BKN050=



000
FTUS42 KJAX 300539
TAFGNV
TAF
KGNV 300539Z 3006/3106 VRB02KT P6SM SKC
     FM301500 21009KT P6SM SKC
     FM301800 25011G18KT P6SM FEW050 SCT250
     FM310100 24006KT P6SM SCT050 BKN250=



000
FTUS42 KJAX 300539
TAFSSI
TAF
KSSI 300539Z 3006/3106 VRB04KT P6SM SKC
     FM301400 22010KT P6SM FEW050
     FM301900 25010G20KT P6SM VCSH BKN050=



000
FTUS42 KJAX 300539
TAFCRG
TAF
KCRG 300539Z 3006/3106 VRB02KT P6SM SKC
     FM301400 22008KT P6SM FEW050
     FM301700 24010G17KT P6SM SCT050 SCT250
     FM310100 24004KT P6SM VCSH BKN050 BKN250=



000
FTUS42 KJAX 300539
TAFJAX
TAF
KJAX 300539Z 3006/3106 VRB02KT P6SM SKC
     FM301400 21008KT P6SM FEW050
     FM301700 24010G17KT P6SM SCT050 SCT250
     FM310100 24004KT P6SM VCSH BKN050 BKN250=



000
FTUS42 KJAX 300539
TAFGNV
TAF
KGNV 300539Z 3006/3106 VRB02KT P6SM SKC
     FM301500 21009KT P6SM SKC
     FM301800 25011G18KT P6SM FEW050 SCT250
     FM310100 24006KT P6SM SCT050 BKN250=



000
FTUS42 KJAX 292327
TAFGNV
TAF
KGNV 292327Z 3000/3024 VRB02KT P6SM SKC
     FM301500 22009KT P6SM SKC
     FM302000 26011KT P6SM FEW050 SCT200=



000
FTUS42 KJAX 292327
TAFSSI
TAF
KSSI 292327Z 3000/3024 VRB04KT P6SM SKC
     FM301400 22010KT P6SM FEW050
     FM301900 25010G20KT P6SM VCSH BKN050=



000
FTUS42 KJAX 292327
TAFCRG
TAF
KCRG 292327Z 3000/3024 VRB02KT P6SM SKC
     FM301400 23009KT P6SM FEW050
     FM301900 25012G20KT P6SM SCT050=



000
FTUS42 KJAX 292327
TAFJAX
TAF
KJAX 292327Z 3000/3024 VRB02KT P6SM SKC
     FM301400 23009KT P6SM FEW050
     FM301900 26012G20KT P6SM SCT050=



000
FTUS42 KJAX 292214 AAA
TAFSSI
TAF AMD
KSSI 292214Z 2922/3018 09008KT P6SM SKC
     FM300000 VRB04KT P6SM SKC
     FM301500 24008KT P6SM SKC=



000
FTUS42 KJAX 292214 AAA
TAFSSI
TAF AMD
KSSI 292214Z 2922/3018 09008KT P6SM SKC
     FM300000 VRB04KT P6SM SKC
     FM301500 24008KT P6SM SKC=



000
FTUS42 KJAX 292211 AAA
TAFCRG
TAF AMD
KCRG 292211Z 2922/3018 08008KT P6SM SKC
     FM300000 VRB03KT P6SM SKC
     FM301500 25010KT P6SM SKC=



000
FTUS42 KJAX 292211 AAA
TAFCRG
TAF AMD
KCRG 292211Z 2922/3018 08008KT P6SM SKC
     FM300000 VRB03KT P6SM SKC
     FM301500 25010KT P6SM SKC=



000
FTUS42 KJAX 291728
TAFSSI
TAF
KSSI 291728Z 2918/3018 06012G18KT P6SM FEW040
     FM300100 12005KT P6SM SKC
     FM301400 21008KT P6SM SKC=



000
FTUS42 KJAX 291728
TAFJAX
TAF
KJAX 291728Z 2918/3018 06008G12KT P6SM FEW050
     FM300100 VRB03KT P6SM SKC
     FM301400 21008KT P6SM SKC=



000
FTUS42 KJAX 291728
TAFCRG
TAF
KCRG 291728Z 2918/3018 06012G22KT P6SM FEW050
     FM300100 VRB03KT P6SM SKC
     FM301400 21008KT P6SM SKC=



000
FTUS42 KJAX 291728
TAFGNV
TAF
KGNV 291728Z 2918/3018 06010G15KT P6SM FEW050
     FM300100 VRB03KT P6SM SKC
      TEMPO 3009/3013 5SM BR
     FM301400 21008KT P6SM SKC=



000
FTUS42 KJAX 291728
TAFSSI
TAF
KSSI 291728Z 2918/3018 06012G18KT P6SM FEW040
     FM300100 12005KT P6SM SKC
     FM301400 21008KT P6SM SKC=



000
FTUS42 KJAX 291728
TAFGNV
TAF
KGNV 291728Z 2918/3018 06010G15KT P6SM FEW050
     FM300100 VRB03KT P6SM SKC
      TEMPO 3009/3013 5SM BR
     FM301400 21008KT P6SM SKC=



000
FTUS42 KJAX 291728
TAFJAX
TAF
KJAX 291728Z 2918/3018 06008G12KT P6SM FEW050
     FM300100 VRB03KT P6SM SKC
     FM301400 21008KT P6SM SKC=



000
FTUS42 KJAX 291728
TAFCRG
TAF
KCRG 291728Z 2918/3018 06012G22KT P6SM FEW050
     FM300100 VRB03KT P6SM SKC
     FM301400 21008KT P6SM SKC=



000
FTUS42 KJAX 291121
TAFGNV
TAF
KGNV 291121Z 2912/3012 33005KT P6SM SKC
     FM291500 04008KT P6SM SKC
     FM300100 VRB03KT P6SM SKC=



000
FTUS42 KJAX 291121
TAFSSI
TAF
KSSI 291121Z 2912/3012 34006KT P6SM SKC
     FM291500 05012KT P6SM SKC
     FM300100 12005KT P6SM SKC
     FM300900 20004KT P6SM SCT250=



000
FTUS42 KJAX 291121
TAFJAX
TAF
KJAX 291121Z 2912/3012 34006KT P6SM SKC
     FM291600 05010KT P6SM SKC
     FM300100 VRB03KT P6SM SKC=



000
FTUS42 KJAX 291121
TAFSSI
TAF
KSSI 291121Z 2912/3012 34006KT P6SM SKC
     FM291500 05012KT P6SM SKC
     FM300100 12005KT P6SM SKC
     FM300900 20004KT P6SM SCT250=



000
FTUS42 KJAX 291121
TAFCRG
TAF
KCRG 291121Z 2912/3012 34006KT P6SM SKC
     FM291600 05010KT P6SM SKC
     FM300100 VRB03KT P6SM SKC=



000
FTUS42 KJAX 291121
TAFJAX
TAF
KJAX 291121Z 2912/3012 34006KT P6SM SKC
     FM291600 05010KT P6SM SKC
     FM300100 VRB03KT P6SM SKC=



000
FTUS42 KJAX 291121
TAFGNV
TAF
KGNV 291121Z 2912/3012 33005KT P6SM SKC
     FM291500 04008KT P6SM SKC
     FM300100 VRB03KT P6SM SKC=



000
FTUS42 KJAX 291121
TAFCRG
TAF
KCRG 291121Z 2912/3012 34006KT P6SM SKC
     FM291600 05010KT P6SM SKC
     FM300100 VRB03KT P6SM SKC=



000
FTUS42 KJAX 290521
TAFCRG
TAF
KCRG 290521Z 2906/3006 VRB03KT P6SM SCT100
     FM291200 34004KT P6SM SKC
     FM291600 05012KT P6SM SKC
     FM300100 VRB03KT P6SM SKC=



000
FTUS42 KJAX 290521
TAFJAX
TAF
KJAX 290521Z 2906/3006 VRB03KT P6SM SCT100
     FM291200 34004KT P6SM SKC
     FM291600 05012KT P6SM SKC
     FM300100 VRB03KT P6SM SKC=



000
FTUS42 KJAX 290521
TAFGNV
TAF
KGNV 290521Z 2906/3006 00000KT P6SM SKC
     FM291500 04008KT P6SM SKC
     FM300100 VRB03KT P6SM SKC=



000
FTUS42 KJAX 290521
TAFSSI
TAF
KSSI 290521Z 2906/3006 VRB03KT P6SM SCT100
     FM291400 06010KT P6SM SKC
     FM300100 10005KT P6SM SKC=



000
FTUS42 KJAX 290521
TAFSSI
TAF
KSSI 290521Z 2906/3006 VRB03KT P6SM SCT100
     FM291400 06010KT P6SM SKC
     FM300100 10005KT P6SM SKC=



000
FTUS42 KJAX 290521
TAFGNV
TAF
KGNV 290521Z 2906/3006 00000KT P6SM SKC
     FM291500 04008KT P6SM SKC
     FM300100 VRB03KT P6SM SKC=



000
FTUS42 KJAX 290521
TAFCRG
TAF
KCRG 290521Z 2906/3006 VRB03KT P6SM SCT100
     FM291200 34004KT P6SM SKC
     FM291600 05012KT P6SM SKC
     FM300100 VRB03KT P6SM SKC=



000
FTUS42 KJAX 290521
TAFJAX
TAF
KJAX 290521Z 2906/3006 VRB03KT P6SM SCT100
     FM291200 34004KT P6SM SKC
     FM291600 05012KT P6SM SKC
     FM300100 VRB03KT P6SM SKC=



    US Dept of Commerce
    National Oceanic and Atmospheric Administration
    National Weather Service
    1325 East West Highway
    Silver Spring, MD 20910
    Page Author: NWS Internet Services Team
Disclaimer
Information Quality
Credits
Glossary
Privacy Policy
Freedom of Information Act (FOIA)
About Us
Career Opportunities